sensor_id;sensor_type;location;lat;lon;timestamp;temperature;humidity
20829;DHT22;10575;50.124;8.582;2023-04-24T00:01:17;13.70;99.90
20829;DHT22;10575;50.124;8.582;2023-04-24T00:03:44;13.70;99.90
20829;DHT22;10575;50.124;8.582;2023-04-24T00:06:10;13.70;99.90
20829;DHT22;10575;50.124;8.582;2023-04-24T00:08:35;13.80;99.90
20829;DHT22;10575;50.124;8.582;2023-04-24T00:11:01;13.80;99.90
20829;DHT22;10575;50.124;8.582;2023-04-24T00:13:27;13.70;99.90
20829;DHT22;10575;50.124;8.582;2023-04-24T00:15:54;13.70;99.90
20829;DHT22;10575;50.124;8.582;2023-04-24T00:18:20;13.70;99.90
20829;DHT22;10575;50.124;8.582;2023-04-24T00:20:45;13.70;99.90
20829;DHT22;10575;50.124;8.582;2023-04-24T00:23:12;13.80;99.90
20829;DHT22;10575;50.124;8.582;2023-04-24T00:25:37;13.80;99.90
20829;DHT22;10575;50.124;8.582;2023-04-24T00:28:03;13.80;99.90
20829;DHT22;10575;50.124;8.582;2023-04-24T00:30:29;13.90;99.90
20829;DHT22;10575;50.124;8.582;2023-04-24T00:32:54;13.80;99.90
20829;DHT22;10575;50.124;8.582;2023-04-24T00:35:20;13.80;99.90
20829;DHT22;10575;50.124;8.582;2023-04-24T00:37:45;13.70;99.90
20829;DHT22;10575;50.124;8.582;2023-04-24T00:40:11;13.70;99.90
20829;DHT22;10575;50.124;8.582;2023-04-24T00:42:37;13.70;99.90
20829;DHT22;10575;50.124;8.582;2023-04-24T00:45:04;13.60;99.90
20829;DHT22;10575;50.124;8.582;2023-04-24T00:47:30;13.50;99.90
20829;DHT22;10575;50.124;8.582;2023-04-24T00:49:57;13.50;99.90
20829;DHT22;10575;50.124;8.582;2023-04-24T00:52:22;13.40;99.90
20829;DHT22;10575;50.124;8.582;2023-04-24T00:54:49;13.30;99.90
20829;DHT22;10575;50.124;8.582;2023-04-24T00:57:15;13.20;99.90
20829;DHT22;10575;50.124;8.582;2023-04-24T00:59:42;13.20;99.90
20829;DHT22;10575;50.124;8.582;2023-04-24T01:02:09;13.20;99.90
20829;DHT22;10575;50.124;8.582;2023-04-24T01:04:36;13.20;99.90
20829;DHT22;10575;50.124;8.582;2023-04-24T01:07:01;13.20;99.90
20829;DHT22;10575;50.124;8.582;2023-04-24T01:09:28;13.20;99.90
20829;DHT22;10575;50.124;8.582;2023-04-24T01:11:53;13.20;99.90
20829;DHT22;10575;50.124;8.582;2023-04-24T01:14:20;13.10;99.90
20829;DHT22;10575;50.124;8.582;2023-04-24T01:16:45;13.10;99.90
20829;DHT22;10575;50.124;8.582;2023-04-24T01:19:11;13.10;99.90
20829;DHT22;10575;50.124;8.582;2023-04-24T01:21:38;13.10;99.90
20829;DHT22;10575;50.124;8.582;2023-04-24T01:24:05;13.10;99.90
20829;DHT22;10575;50.124;8.582;2023-04-24T01:26:32;13.20;99.90
20829;DHT22;10575;50.124;8.582;2023-04-24T01:28:58;13.20;99.90
20829;DHT22;10575;50.124;8.582;2023-04-24T01:31:23;13.20;99.90
20829;DHT22;10575;50.124;8.582;2023-04-24T01:33:50;13.20;99.90
20829;DHT22;10575;50.124;8.582;2023-04-24T01:36:16;13.20;99.90
20829;DHT22;10575;50.124;8.582;2023-04-24T01:38:42;13.20;99.90
20829;DHT22;10575;50.124;8.582;2023-04-24T01:41:07;13.10;99.90
20829;DHT22;10575;50.124;8.582;2023-04-24T01:43:33;13.10;99.90
20829;DHT22;10575;50.124;8.582;2023-04-24T01:45:59;13.10;99.90
20829;DHT22;10575;50.124;8.582;2023-04-24T01:48:24;13.20;99.90
20829;DHT22;10575;50.124;8.582;2023-04-24T01:50:50;13.10;99.90
20829;DHT22;10575;50.124;8.582;2023-04-24T01:53:16;13.20;99.90
20829;DHT22;10575;50.124;8.582;2023-04-24T01:55:41;13.10;99.90
20829;DHT22;10575;50.124;8.582;2023-04-24T01:58:07;13.10;99.90
20829;DHT22;10575;50.124;8.582;2023-04-24T02:00:33;13.20;99.90
20829;DHT22;10575;50.124;8.582;2023-04-24T02:02:58;13.20;99.90
20829;DHT22;10575;50.124;8.582;2023-04-24T02:05:24;13.20;99.90
20829;DHT22;10575;50.124;8.582;2023-04-24T02:07:49;13.30;99.90
20829;DHT22;10575;50.124;8.582;2023-04-24T02:10:15;13.30;99.90
20829;DHT22;10575;50.124;8.582;2023-04-24T02:12:40;13.20;99.90
20829;DHT22;10575;50.124;8.582;2023-04-24T02:15:06;13.20;99.90
20829;DHT22;10575;50.124;8.582;2023-04-24T02:17:32;13.20;99.90
20829;DHT22;10575;50.124;8.582;2023-04-24T02:19:57;13.20;99.90
20829;DHT22;10575;50.124;8.582;2023-04-24T02:22:23;13.20;99.90
20829;DHT22;10575;50.124;8.582;2023-04-24T02:24:48;13.30;99.90
20829;DHT22;10575;50.124;8.582;2023-04-24T02:27:14;13.40;99.90
20829;DHT22;10575;50.124;8.582;2023-04-24T02:29:40;13.40;99.90
20829;DHT22;10575;50.124;8.582;2023-04-24T02:32:05;13.30;99.90
20829;DHT22;10575;50.124;8.582;2023-04-24T02:34:31;13.00;99.90
20829;DHT22;10575;50.124;8.582;2023-04-24T02:36:56;13.00;99.90
20829;DHT22;10575;50.124;8.582;2023-04-24T02:39:22;12.90;99.90
20829;DHT22;10575;50.124;8.582;2023-04-24T02:41:47;12.80;99.90
20829;DHT22;10575;50.124;8.582;2023-04-24T02:44:13;12.80;99.90
20829;DHT22;10575;50.124;8.582;2023-04-24T02:46:38;12.80;99.90
20829;DHT22;10575;50.124;8.582;2023-04-24T02:49:06;12.80;99.90
20829;DHT22;10575;50.124;8.582;2023-04-24T02:51:32;12.80;99.90
20829;DHT22;10575;50.124;8.582;2023-04-24T02:53:57;12.80;99.90
20829;DHT22;10575;50.124;8.582;2023-04-24T02:56:23;12.90;99.90
20829;DHT22;10575;50.124;8.582;2023-04-24T02:58:48;12.80;99.90
20829;DHT22;10575;50.124;8.582;2023-04-24T03:01:14;12.90;99.90
20829;DHT22;10575;50.124;8.582;2023-04-24T03:03:39;12.80;99.90
20829;DHT22;10575;50.124;8.582;2023-04-24T03:06:05;12.90;99.90
20829;DHT22;10575;50.124;8.582;2023-04-24T03:08:32;12.90;99.90
20829;DHT22;10575;50.124;8.582;2023-04-24T03:10:57;12.90;99.90
20829;DHT22;10575;50.124;8.582;2023-04-24T03:13:23;12.90;99.90
20829;DHT22;10575;50.124;8.582;2023-04-24T03:15:48;12.90;99.90
20829;DHT22;10575;50.124;8.582;2023-04-24T03:18:14;12.90;99.90
20829;DHT22;10575;50.124;8.582;2023-04-24T03:20:39;13.00;99.90
20829;DHT22;10575;50.124;8.582;2023-04-24T03:23:05;12.80;99.90
20829;DHT22;10575;50.124;8.582;2023-04-24T03:25:30;12.80;99.90
20829;DHT22;10575;50.124;8.582;2023-04-24T03:27:56;12.80;99.90
20829;DHT22;10575;50.124;8.582;2023-04-24T03:30:21;12.90;99.90
20829;DHT22;10575;50.124;8.582;2023-04-24T03:32:47;13.00;99.90
20829;DHT22;10575;50.124;8.582;2023-04-24T03:35:13;13.00;99.90
20829;DHT22;10575;50.124;8.582;2023-04-24T03:37:38;13.00;99.90
20829;DHT22;10575;50.124;8.582;2023-04-24T03:40:04;13.00;99.90
20829;DHT22;10575;50.124;8.582;2023-04-24T03:42:31;13.00;99.90
20829;DHT22;10575;50.124;8.582;2023-04-24T03:44:56;13.10;99.90
20829;DHT22;10575;50.124;8.582;2023-04-24T03:47:22;13.10;99.90
20829;DHT22;10575;50.124;8.582;2023-04-24T03:49:47;13.10;99.90
20829;DHT22;10575;50.124;8.582;2023-04-24T03:52:13;13.00;99.90
20829;DHT22;10575;50.124;8.582;2023-04-24T03:54:38;13.00;99.90
20829;DHT22;10575;50.124;8.582;2023-04-24T03:57:04;12.90;99.90
20829;DHT22;10575;50.124;8.582;2023-04-24T03:59:30;12.90;99.90
20829;DHT22;10575;50.124;8.582;2023-04-24T04:01:56;12.90;99.90
20829;DHT22;10575;50.124;8.582;2023-04-24T04:04:21;12.90;99.90
20829;DHT22;10575;50.124;8.582;2023-04-24T04:06:47;12.80;99.90
20829;DHT22;10575;50.124;8.582;2023-04-24T04:09:13;12.50;99.90
20829;DHT22;10575;50.124;8.582;2023-04-24T04:11:38;12.60;99.90
20829;DHT22;10575;50.124;8.582;2023-04-24T04:14:07;12.70;99.90
20829;DHT22;10575;50.124;8.582;2023-04-24T04:16:32;12.50;99.90
20829;DHT22;10575;50.124;8.582;2023-04-24T04:18:58;12.40;99.90
20829;DHT22;10575;50.124;8.582;2023-04-24T04:21:24;12.30;99.90
20829;DHT22;10575;50.124;8.582;2023-04-24T04:23:49;12.30;99.90
20829;DHT22;10575;50.124;8.582;2023-04-24T04:26:15;12.30;99.90
20829;DHT22;10575;50.124;8.582;2023-04-24T04:28:40;12.20;99.90
20829;DHT22;10575;50.124;8.582;2023-04-24T04:31:06;12.10;99.90
20829;DHT22;10575;50.124;8.582;2023-04-24T04:33:33;11.80;99.90
20829;DHT22;10575;50.124;8.582;2023-04-24T04:35:59;11.70;99.90
20829;DHT22;10575;50.124;8.582;2023-04-24T04:38:25;11.80;99.90
20829;DHT22;10575;50.124;8.582;2023-04-24T04:40:51;11.60;99.90
20829;DHT22;10575;50.124;8.582;2023-04-24T04:43:17;11.50;99.90
20829;DHT22;10575;50.124;8.582;2023-04-24T04:45:42;11.50;99.90
20829;DHT22;10575;50.124;8.582;2023-04-24T04:48:09;11.40;99.90
20829;DHT22;10575;50.124;8.582;2023-04-24T04:50:35;11.40;99.90
20829;DHT22;10575;50.124;8.582;2023-04-24T04:53:01;11.40;99.90
20829;DHT22;10575;50.124;8.582;2023-04-24T04:55:26;11.40;99.90
20829;DHT22;10575;50.124;8.582;2023-04-24T04:57:52;11.40;99.90
20829;DHT22;10575;50.124;8.582;2023-04-24T05:00:18;11.50;99.90
20829;DHT22;10575;50.124;8.582;2023-04-24T05:02:44;11.40;99.90
20829;DHT22;10575;50.124;8.582;2023-04-24T05:05:09;11.30;99.90
20829;DHT22;10575;50.124;8.582;2023-04-24T05:07:35;11.30;99.90
20829;DHT22;10575;50.124;8.582;2023-04-24T05:10:01;11.30;99.90
20829;DHT22;10575;50.124;8.582;2023-04-24T05:12:27;11.40;99.90
20829;DHT22;10575;50.124;8.582;2023-04-24T05:14:52;11.30;99.90
20829;DHT22;10575;50.124;8.582;2023-04-24T05:17:18;11.20;99.90
20829;DHT22;10575;50.124;8.582;2023-04-24T05:19:43;11.10;99.90
20829;DHT22;10575;50.124;8.582;2023-04-24T05:22:09;11.10;99.90
20829;DHT22;10575;50.124;8.582;2023-04-24T05:24:36;11.20;99.90
20829;DHT22;10575;50.124;8.582;2023-04-24T05:27:02;11.30;99.90
20829;DHT22;10575;50.124;8.582;2023-04-24T05:29:30;11.50;99.90
20829;DHT22;10575;50.124;8.582;2023-04-24T05:31:59;11.70;99.90
20829;DHT22;10575;50.124;8.582;2023-04-24T05:34:25;12.00;99.90
20829;DHT22;10575;50.124;8.582;2023-04-24T05:36:51;12.30;99.90
20829;DHT22;10575;50.124;8.582;2023-04-24T05:39:16;12.40;99.90
20829;DHT22;10575;50.124;8.582;2023-04-24T05:41:42;12.60;99.90
20829;DHT22;10575;50.124;8.582;2023-04-24T05:44:08;12.80;99.90
20829;DHT22;10575;50.124;8.582;2023-04-24T05:46:34;13.00;99.90
20829;DHT22;10575;50.124;8.582;2023-04-24T05:49:00;13.30;99.90
20829;DHT22;10575;50.124;8.582;2023-04-24T05:51:26;13.50;99.90
20829;DHT22;10575;50.124;8.582;2023-04-24T05:53:51;13.80;99.90
20829;DHT22;10575;50.124;8.582;2023-04-24T05:56:18;13.90;99.90
20829;DHT22;10575;50.124;8.582;2023-04-24T05:58:43;13.80;99.90
20829;DHT22;10575;50.124;8.582;2023-04-24T06:01:09;13.70;99.90
20829;DHT22;10575;50.124;8.582;2023-04-24T06:03:35;13.40;99.90
20829;DHT22;10575;50.124;8.582;2023-04-24T06:06:00;13.20;99.90
20829;DHT22;10575;50.124;8.582;2023-04-24T06:08:26;13.20;99.90
20829;DHT22;10575;50.124;8.582;2023-04-24T06:10:51;13.20;99.90
20829;DHT22;10575;50.124;8.582;2023-04-24T06:13:17;13.30;99.90
20829;DHT22;10575;50.124;8.582;2023-04-24T06:15:43;13.20;99.90
20829;DHT22;10575;50.124;8.582;2023-04-24T06:18:09;13.10;99.90
20829;DHT22;10575;50.124;8.582;2023-04-24T06:20:35;13.00;99.90
20829;DHT22;10575;50.124;8.582;2023-04-24T06:23:01;13.10;99.90
20829;DHT22;10575;50.124;8.582;2023-04-24T06:25:28;13.70;99.90
20829;DHT22;10575;50.124;8.582;2023-04-24T06:27:55;15.10;99.90
20829;DHT22;10575;50.124;8.582;2023-04-24T06:30:21;15.60;99.90
20829;DHT22;10575;50.124;8.582;2023-04-24T06:32:46;15.30;99.90
20829;DHT22;10575;50.124;8.582;2023-04-24T06:35:12;15.40;99.90
20829;DHT22;10575;50.124;8.582;2023-04-24T06:37:39;15.20;99.90
20829;DHT22;10575;50.124;8.582;2023-04-24T06:40:05;15.10;99.90
20829;DHT22;10575;50.124;8.582;2023-04-24T06:42:31;15.10;99.90
20829;DHT22;10575;50.124;8.582;2023-04-24T06:44:56;15.20;99.90
20829;DHT22;10575;50.124;8.582;2023-04-24T06:47:22;14.80;99.90
20829;DHT22;10575;50.124;8.582;2023-04-24T06:49:48;15.00;99.90
20829;DHT22;10575;50.124;8.582;2023-04-24T06:52:16;16.40;99.90
20829;DHT22;10575;50.124;8.582;2023-04-24T06:54:41;18.80;99.90
20829;DHT22;10575;50.124;8.582;2023-04-24T06:57:08;19.90;99.90
20829;DHT22;10575;50.124;8.582;2023-04-24T06:59:33;21.50;99.90
20829;DHT22;10575;50.124;8.582;2023-04-24T07:01:59;22.40;99.90
20829;DHT22;10575;50.124;8.582;2023-04-24T07:04:25;23.00;99.10
20829;DHT22;10575;50.124;8.582;2023-04-24T07:06:50;23.30;97.30
20829;DHT22;10575;50.124;8.582;2023-04-24T07:09:16;23.40;96.30
20829;DHT22;10575;50.124;8.582;2023-04-24T07:11:44;23.30;93.90
20829;DHT22;10575;50.124;8.582;2023-04-24T07:14:10;23.50;93.70
20829;DHT22;10575;50.124;8.582;2023-04-24T07:16:35;23.70;93.50
20829;DHT22;10575;50.124;8.582;2023-04-24T07:19:01;23.80;92.90
20829;DHT22;10575;50.124;8.582;2023-04-24T07:21:26;24.30;92.10
20829;DHT22;10575;50.124;8.582;2023-04-24T07:23:52;24.80;91.00
20829;DHT22;10575;50.124;8.582;2023-04-24T07:26:18;25.90;83.50
20829;DHT22;10575;50.124;8.582;2023-04-24T07:28:43;25.90;78.90
20829;DHT22;10575;50.124;8.582;2023-04-24T07:31:11;25.30;78.80
20829;DHT22;10575;50.124;8.582;2023-04-24T07:33:37;26.80;75.50
20829;DHT22;10575;50.124;8.582;2023-04-24T07:36:02;26.70;73.50
20829;DHT22;10575;50.124;8.582;2023-04-24T07:38:30;26.60;70.60
20829;DHT22;10575;50.124;8.582;2023-04-24T07:40:55;26.60;72.80
20829;DHT22;10575;50.124;8.582;2023-04-24T07:43:21;27.40;68.40
20829;DHT22;10575;50.124;8.582;2023-04-24T07:45:47;29.70;62.50
20829;DHT22;10575;50.124;8.582;2023-04-24T07:48:13;31.50;55.80
20829;DHT22;10575;50.124;8.582;2023-04-24T07:50:41;32.20;51.10
20829;DHT22;10575;50.124;8.582;2023-04-24T07:53:07;29.50;53.70
20829;DHT22;10575;50.124;8.582;2023-04-24T07:55:33;27.80;56.30
20829;DHT22;10575;50.124;8.582;2023-04-24T07:57:58;26.20;59.00
20829;DHT22;10575;50.124;8.582;2023-04-24T08:00:24;23.70;64.00
20829;DHT22;10575;50.124;8.582;2023-04-24T08:02:50;22.80;69.80
20829;DHT22;10575;50.124;8.582;2023-04-24T08:05:16;23.30;68.20
20829;DHT22;10575;50.124;8.582;2023-04-24T08:07:42;25.90;63.00
20829;DHT22;10575;50.124;8.582;2023-04-24T08:10:09;29.60;58.00
20829;DHT22;10575;50.124;8.582;2023-04-24T08:12:36;32.90;50.90
20829;DHT22;10575;50.124;8.582;2023-04-24T08:15:02;35.40;43.50
20829;DHT22;10575;50.124;8.582;2023-04-24T08:17:27;36.30;41.20
20829;DHT22;10575;50.124;8.582;2023-04-24T08:19:53;37.60;38.30
20829;DHT22;10575;50.124;8.582;2023-04-24T08:22:24;37.10;36.70
20829;DHT22;10575;50.124;8.582;2023-04-24T08:24:49;35.30;38.40
20829;DHT22;10575;50.124;8.582;2023-04-24T08:27:15;35.60;37.50
20829;DHT22;10575;50.124;8.582;2023-04-24T08:29:40;34.70;38.40
20829;DHT22;10575;50.124;8.582;2023-04-24T08:32:06;35.20;37.20
20829;DHT22;10575;50.124;8.582;2023-04-24T08:34:32;34.40;38.00
20829;DHT22;10575;50.124;8.582;2023-04-24T08:36:57;33.70;38.70
20829;DHT22;10575;50.124;8.582;2023-04-24T08:39:23;35.00;37.80
20829;DHT22;10575;50.124;8.582;2023-04-24T08:41:48;32.70;38.60
20829;DHT22;10575;50.124;8.582;2023-04-24T08:44:16;29.70;42.70
20829;DHT22;10575;50.124;8.582;2023-04-24T08:46:43;27.10;45.50
20829;DHT22;10575;50.124;8.582;2023-04-24T08:49:12;24.60;49.80
20829;DHT22;10575;50.124;8.582;2023-04-24T08:51:38;22.50;54.50
20829;DHT22;10575;50.124;8.582;2023-04-24T08:54:04;20.90;58.20
20829;DHT22;10575;50.124;8.582;2023-04-24T08:56:33;19.70;62.50
20829;DHT22;10575;50.124;8.582;2023-04-24T08:58:59;19.00;66.30
20829;DHT22;10575;50.124;8.582;2023-04-24T09:01:25;18.60;68.40
20829;DHT22;10575;50.124;8.582;2023-04-24T09:03:53;17.90;71.50
20829;DHT22;10575;50.124;8.582;2023-04-24T09:06:21;17.50;73.10
20829;DHT22;10575;50.124;8.582;2023-04-24T09:08:48;17.20;75.00
20829;DHT22;10575;50.124;8.582;2023-04-24T09:11:16;16.90;78.00
20829;DHT22;10575;50.124;8.582;2023-04-24T09:13:43;16.70;80.20
20829;DHT22;10575;50.124;8.582;2023-04-24T09:16:08;16.60;81.70
20829;DHT22;10575;50.124;8.582;2023-04-24T09:18:34;16.30;84.10
20829;DHT22;10575;50.124;8.582;2023-04-24T09:21:08;16.30;85.80
20829;DHT22;10575;50.124;8.582;2023-04-24T09:23:34;16.10;88.60
20829;DHT22;10575;50.124;8.582;2023-04-24T09:26:01;16.30;89.00
20829;DHT22;10575;50.124;8.582;2023-04-24T09:28:37;16.00;88.70
20829;DHT22;10575;50.124;8.582;2023-04-24T09:31:15;15.50;91.20
20829;DHT22;10575;50.124;8.582;2023-04-24T09:33:57;15.30;91.10
20829;DHT22;10575;50.124;8.582;2023-04-24T09:36:42;15.20;91.40
20829;DHT22;10575;50.124;8.582;2023-04-24T09:39:10;15.20;92.20
20829;DHT22;10575;50.124;8.582;2023-04-24T09:44:13;15.00;93.10
20829;DHT22;10575;50.124;8.582;2023-04-24T09:46:40;14.90;94.60
20829;DHT22;10575;50.124;8.582;2023-04-24T09:49:12;15.00;95.10
20829;DHT22;10575;50.124;8.582;2023-04-24T09:51:38;15.10;95.20
20829;DHT22;10575;50.124;8.582;2023-04-24T09:54:14;15.30;95.50
20829;DHT22;10575;50.124;8.582;2023-04-24T09:56:50;15.40;96.30
20829;DHT22;10575;50.124;8.582;2023-04-24T09:59:18;15.40;96.70
20829;DHT22;10575;50.124;8.582;2023-04-24T10:01:44;15.40;96.90
20829;DHT22;10575;50.124;8.582;2023-04-24T10:06:46;15.40;97.30
20829;DHT22;10575;50.124;8.582;2023-04-24T10:09:12;15.30;97.70
20829;DHT22;10575;50.124;8.582;2023-04-24T10:11:46;15.40;98.60
20829;DHT22;10575;50.124;8.582;2023-04-24T10:14:14;15.70;98.90
20829;DHT22;10575;50.124;8.582;2023-04-24T10:16:41;15.80;99.40
20829;DHT22;10575;50.124;8.582;2023-04-24T10:19:08;15.90;99.90
20829;DHT22;10575;50.124;8.582;2023-04-24T10:21:35;16.00;99.90
20829;DHT22;10575;50.124;8.582;2023-04-24T10:24:04;16.10;99.90
20829;DHT22;10575;50.124;8.582;2023-04-24T10:26:32;16.30;99.90
20829;DHT22;10575;50.124;8.582;2023-04-24T10:28:58;15.90;99.90
20829;DHT22;10575;50.124;8.582;2023-04-24T10:31:24;15.70;99.90
20829;DHT22;10575;50.124;8.582;2023-04-24T10:33:51;15.50;99.90
20829;DHT22;10575;50.124;8.582;2023-04-24T10:36:17;15.40;99.90
20829;DHT22;10575;50.124;8.582;2023-04-24T10:38:45;15.10;99.90
20829;DHT22;10575;50.124;8.582;2023-04-24T10:41:12;15.00;99.90
20829;DHT22;10575;50.124;8.582;2023-04-24T10:43:45;14.80;99.90
20829;DHT22;10575;50.124;8.582;2023-04-24T10:46:19;14.70;99.90
20829;DHT22;10575;50.124;8.582;2023-04-24T10:48:52;14.60;99.90
20829;DHT22;10575;50.124;8.582;2023-04-24T10:51:43;14.40;99.90
20829;DHT22;10575;50.124;8.582;2023-04-24T10:56:50;14.50;99.90
20829;DHT22;10575;50.124;8.582;2023-04-24T10:59:27;14.70;99.90
20829;DHT22;10575;50.124;8.582;2023-04-24T11:01:54;15.30;99.90
20829;DHT22;10575;50.124;8.582;2023-04-24T11:04:30;16.10;99.90
20829;DHT22;10575;50.124;8.582;2023-04-24T11:06:57;16.60;99.90
20829;DHT22;10575;50.124;8.582;2023-04-24T11:09:22;16.80;99.90
20829;DHT22;10575;50.124;8.582;2023-04-24T11:12:03;16.70;99.90
20829;DHT22;10575;50.124;8.582;2023-04-24T11:14:29;16.40;99.90
20829;DHT22;10575;50.124;8.582;2023-04-24T11:16:55;16.70;99.90
20829;DHT22;10575;50.124;8.582;2023-04-24T11:19:25;16.80;99.90
20829;DHT22;10575;50.124;8.582;2023-04-24T11:24:39;17.00;99.90
20829;DHT22;10575;50.124;8.582;2023-04-24T11:27:20;17.10;99.90
20829;DHT22;10575;50.124;8.582;2023-04-24T11:29:59;17.10;99.90
20829;DHT22;10575;50.124;8.582;2023-04-24T11:32:47;16.90;99.90
20829;DHT22;10575;50.124;8.582;2023-04-24T11:35:22;16.80;99.90
20829;DHT22;10575;50.124;8.582;2023-04-24T11:37:53;16.70;99.90
20829;DHT22;10575;50.124;8.582;2023-04-24T11:40:20;16.80;99.90
20829;DHT22;10575;50.124;8.582;2023-04-24T11:42:50;17.00;99.90
20829;DHT22;10575;50.124;8.582;2023-04-24T11:45:24;17.10;99.90
20829;DHT22;10575;50.124;8.582;2023-04-24T11:47:50;17.50;99.90
20829;DHT22;10575;50.124;8.582;2023-04-24T11:50:17;17.40;99.90
20829;DHT22;10575;50.124;8.582;2023-04-24T11:52:46;17.30;99.90
20829;DHT22;10575;50.124;8.582;2023-04-24T11:55:23;17.00;99.90
20829;DHT22;10575;50.124;8.582;2023-04-24T11:57:56;16.90;99.90
20829;DHT22;10575;50.124;8.582;2023-04-24T12:00:25;16.80;99.90
20829;DHT22;10575;50.124;8.582;2023-04-24T12:02:51;16.10;99.90
20829;DHT22;10575;50.124;8.582;2023-04-24T12:05:24;15.70;99.90
20829;DHT22;10575;50.124;8.582;2023-04-24T12:07:52;15.50;99.90
20829;DHT22;10575;50.124;8.582;2023-04-24T12:10:22;15.30;99.90
20829;DHT22;10575;50.124;8.582;2023-04-24T12:12:47;15.10;99.90
20829;DHT22;10575;50.124;8.582;2023-04-24T12:15:16;14.80;99.90
20829;DHT22;10575;50.124;8.582;2023-04-24T12:17:42;14.50;99.90
20829;DHT22;10575;50.124;8.582;2023-04-24T12:20:08;14.20;99.90
20829;DHT22;10575;50.124;8.582;2023-04-24T12:22:51;14.30;99.90
20829;DHT22;10575;50.124;8.582;2023-04-24T12:25:21;14.60;99.90
20829;DHT22;10575;50.124;8.582;2023-04-24T12:27:52;15.00;99.90
20829;DHT22;10575;50.124;8.582;2023-04-24T12:30:17;15.40;99.90
20829;DHT22;10575;50.124;8.582;2023-04-24T12:32:48;15.70;99.90
20829;DHT22;10575;50.124;8.582;2023-04-24T12:35:19;15.60;99.90
20829;DHT22;10575;50.124;8.582;2023-04-24T12:37:46;15.70;99.90
20829;DHT22;10575;50.124;8.582;2023-04-24T12:40:12;15.60;99.90
20829;DHT22;10575;50.124;8.582;2023-04-24T12:42:45;15.10;99.90
20829;DHT22;10575;50.124;8.582;2023-04-24T12:45:12;15.30;99.90
20829;DHT22;10575;50.124;8.582;2023-04-24T12:47:39;15.70;99.90
20829;DHT22;10575;50.124;8.582;2023-04-24T12:50:06;15.80;99.90
20829;DHT22;10575;50.124;8.582;2023-04-24T12:52:32;16.10;99.90
20829;DHT22;10575;50.124;8.582;2023-04-24T12:54:59;16.10;99.90
20829;DHT22;10575;50.124;8.582;2023-04-24T12:57:26;16.20;99.90
20829;DHT22;10575;50.124;8.582;2023-04-24T12:59:54;16.50;99.90
20829;DHT22;10575;50.124;8.582;2023-04-24T13:02:21;16.50;99.90
20829;DHT22;10575;50.124;8.582;2023-04-24T13:04:47;16.50;99.90
20829;DHT22;10575;50.124;8.582;2023-04-24T13:07:14;16.40;99.90
20829;DHT22;10575;50.124;8.582;2023-04-24T13:09:40;16.00;99.90
20829;DHT22;10575;50.124;8.582;2023-04-24T13:12:07;15.90;99.90
20829;DHT22;10575;50.124;8.582;2023-04-24T13:14:33;15.80;99.90
20829;DHT22;10575;50.124;8.582;2023-04-24T13:16:58;15.40;99.90
20829;DHT22;10575;50.124;8.582;2023-04-24T13:19:25;15.00;99.90
20829;DHT22;10575;50.124;8.582;2023-04-24T13:21:51;15.10;99.90
20829;DHT22;10575;50.124;8.582;2023-04-24T13:24:17;15.00;99.90
20829;DHT22;10575;50.124;8.582;2023-04-24T13:26:43;15.40;99.90
20829;DHT22;10575;50.124;8.582;2023-04-24T13:29:08;15.70;99.90
20829;DHT22;10575;50.124;8.582;2023-04-24T13:31:34;15.80;99.90
20829;DHT22;10575;50.124;8.582;2023-04-24T13:34:00;15.60;99.90
20829;DHT22;10575;50.124;8.582;2023-04-24T13:36:26;15.40;99.90
20829;DHT22;10575;50.124;8.582;2023-04-24T13:38:52;15.00;99.90
20829;DHT22;10575;50.124;8.582;2023-04-24T13:41:17;14.90;99.90
20829;DHT22;10575;50.124;8.582;2023-04-24T13:43:43;14.90;99.90
20829;DHT22;10575;50.124;8.582;2023-04-24T13:46:08;15.30;99.90
20829;DHT22;10575;50.124;8.582;2023-04-24T13:48:34;15.60;99.90
20829;DHT22;10575;50.124;8.582;2023-04-24T13:51:00;15.90;99.90
20829;DHT22;10575;50.124;8.582;2023-04-24T13:53:25;16.00;99.90
20829;DHT22;10575;50.124;8.582;2023-04-24T13:55:51;16.10;99.90
20829;DHT22;10575;50.124;8.582;2023-04-24T13:58:17;16.00;99.90
20829;DHT22;10575;50.124;8.582;2023-04-24T14:00:42;15.90;99.90
20829;DHT22;10575;50.124;8.582;2023-04-24T14:03:08;15.90;99.90
20829;DHT22;10575;50.124;8.582;2023-04-24T14:05:33;16.00;99.90
20829;DHT22;10575;50.124;8.582;2023-04-24T14:07:59;16.10;99.90
20829;DHT22;10575;50.124;8.582;2023-04-24T14:10:25;16.40;99.90
20829;DHT22;10575;50.124;8.582;2023-04-24T14:12:52;16.20;99.90
20829;DHT22;10575;50.124;8.582;2023-04-24T14:15:18;16.30;99.90
20829;DHT22;10575;50.124;8.582;2023-04-24T14:17:44;16.30;99.90
20829;DHT22;10575;50.124;8.582;2023-04-24T14:20:10;16.10;99.90
20829;DHT22;10575;50.124;8.582;2023-04-24T14:22:35;16.00;99.90
20829;DHT22;10575;50.124;8.582;2023-04-24T14:25:01;15.90;99.90
20829;DHT22;10575;50.124;8.582;2023-04-24T14:27:26;16.10;99.90
20829;DHT22;10575;50.124;8.582;2023-04-24T14:29:52;16.10;99.90
20829;DHT22;10575;50.124;8.582;2023-04-24T14:32:18;16.00;99.90
20829;DHT22;10575;50.124;8.582;2023-04-24T14:34:43;16.00;99.90
20829;DHT22;10575;50.124;8.582;2023-04-24T14:37:09;15.70;99.90
20829;DHT22;10575;50.124;8.582;2023-04-24T14:39:34;15.70;99.90
20829;DHT22;10575;50.124;8.582;2023-04-24T14:42:00;15.70;99.90
20829;DHT22;10575;50.124;8.582;2023-04-24T14:44:26;15.70;99.90
20829;DHT22;10575;50.124;8.582;2023-04-24T14:46:52;15.50;99.90
20829;DHT22;10575;50.124;8.582;2023-04-24T14:49:18;15.30;99.90
20829;DHT22;10575;50.124;8.582;2023-04-24T14:51:44;15.20;99.90
20829;DHT22;10575;50.124;8.582;2023-04-24T14:54:09;15.20;99.90
20829;DHT22;10575;50.124;8.582;2023-04-24T14:56:35;15.60;99.90
20829;DHT22;10575;50.124;8.582;2023-04-24T14:59:01;15.80;99.90
20829;DHT22;10575;50.124;8.582;2023-04-24T15:01:26;16.10;99.90
20829;DHT22;10575;50.124;8.582;2023-04-24T15:03:52;16.40;99.90
20829;DHT22;10575;50.124;8.582;2023-04-24T15:06:17;16.70;99.90
20829;DHT22;10575;50.124;8.582;2023-04-24T15:08:43;16.70;99.90
20829;DHT22;10575;50.124;8.582;2023-04-24T15:11:10;16.70;99.90
20829;DHT22;10575;50.124;8.582;2023-04-24T15:13:35;16.60;99.90
20829;DHT22;10575;50.124;8.582;2023-04-24T15:16:01;16.20;99.90
20829;DHT22;10575;50.124;8.582;2023-04-24T15:18:27;16.10;99.90
20829;DHT22;10575;50.124;8.582;2023-04-24T15:20:54;15.90;99.90
20829;DHT22;10575;50.124;8.582;2023-04-24T15:23:20;15.70;99.90
20829;DHT22;10575;50.124;8.582;2023-04-24T15:25:45;15.30;99.90
20829;DHT22;10575;50.124;8.582;2023-04-24T15:28:11;15.10;99.90
20829;DHT22;10575;50.124;8.582;2023-04-24T15:30:37;15.40;99.90
20829;DHT22;10575;50.124;8.582;2023-04-24T15:33:03;15.40;99.90
20829;DHT22;10575;50.124;8.582;2023-04-24T15:35:29;15.30;99.90
20829;DHT22;10575;50.124;8.582;2023-04-24T15:37:54;15.40;99.90